sensor_id;sensor_type;location;lat;lon;timestamp;pressure;altitude;pressure_sealevel;temperature;humidity
75972;BME280;64651;47.540;19.088;2023-08-06T00:04:52;99068.78;;;20.72;99.66
75972;BME280;64651;47.540;19.088;2023-08-06T00:09:54;99075.56;;;20.71;100.00
75972;BME280;64651;47.540;19.088;2023-08-06T00:14:57;99082.88;;;20.79;99.80
75972;BME280;64651;47.540;19.088;2023-08-06T00:20:01;99095.44;;;20.92;99.14
75972;BME280;64651;47.540;19.088;2023-08-06T00:25:07;99103.56;;;21.04;99.27
75972;BME280;64651;47.540;19.088;2023-08-06T00:30:09;99105.69;;;21.14;98.93
75972;BME280;64651;47.540;19.088;2023-08-06T00:35:12;99101.00;;;21.22;99.02
75972;BME280;64651;47.540;19.088;2023-08-06T00:40:15;99094.50;;;21.14;100.00
75972;BME280;64651;47.540;19.088;2023-08-06T00:45:17;99081.38;;;21.18;100.00
75972;BME280;64651;47.540;19.088;2023-08-06T00:50:20;99060.88;;;20.77;100.00
75972;BME280;64651;47.540;19.088;2023-08-06T00:55:24;99050.53;;;20.81;100.00
75972;BME280;64651;47.540;19.088;2023-08-06T01:00:27;99047.91;;;20.95;100.00
75972;BME280;64651;47.540;19.088;2023-08-06T01:05:29;99029.31;;;21.10;100.00
75972;BME280;64651;47.540;19.088;2023-08-06T01:10:36;99045.31;;;21.13;100.00
75972;BME280;64651;47.540;19.088;2023-08-06T01:15:46;99036.22;;;21.20;100.00
75972;BME280;64651;47.540;19.088;2023-08-06T01:20:48;99034.13;;;21.13;100.00
75972;BME280;64651;47.540;19.088;2023-08-06T01:31:04;99019.94;;;20.92;100.00
75972;BME280;64651;47.540;19.088;2023-08-06T01:36:09;99022.94;;;20.20;100.00
75972;BME280;64651;47.540;19.088;2023-08-06T01:41:12;99013.72;;;20.16;100.00
75972;BME280;64651;47.540;19.088;2023-08-06T01:46:14;99015.50;;;20.31;100.00
75972;BME280;64651;47.540;19.088;2023-08-06T01:51:17;99007.41;;;20.49;100.00
75972;BME280;64651;47.540;19.088;2023-08-06T01:56:21;98987.91;;;20.52;100.00
75972;BME280;64651;47.540;19.088;2023-08-06T02:01:23;98989.91;;;20.55;100.00
75972;BME280;64651;47.540;19.088;2023-08-06T02:06:25;98975.56;;;20.57;100.00
75972;BME280;64651;47.540;19.088;2023-08-06T02:11:28;98964.25;;;20.43;100.00
75972;BME280;64651;47.540;19.088;2023-08-06T02:16:30;98957.97;;;20.23;100.00
75972;BME280;64651;47.540;19.088;2023-08-06T02:21:32;98949.91;;;20.18;100.00
75972;BME280;64651;47.540;19.088;2023-08-06T02:26:34;98938.75;;;20.18;100.00
75972;BME280;64651;47.540;19.088;2023-08-06T02:31:37;98947.03;;;20.41;100.00
75972;BME280;64651;47.540;19.088;2023-08-06T02:36:39;98943.06;;;20.42;100.00
75972;BME280;64651;47.540;19.088;2023-08-06T02:41:41;98931.56;;;20.50;100.00
75972;BME280;64651;47.540;19.088;2023-08-06T02:46:46;98926.87;;;20.58;100.00
75972;BME280;64651;47.540;19.088;2023-08-06T02:51:48;98924.50;;;20.60;100.00
75972;BME280;64651;47.540;19.088;2023-08-06T02:56:51;98925.69;;;20.59;100.00
75972;BME280;64651;47.540;19.088;2023-08-06T03:01:53;98928.88;;;20.57;100.00
75972;BME280;64651;47.540;19.088;2023-08-06T03:06:56;98918.66;;;20.72;100.00
75972;BME280;64651;47.540;19.088;2023-08-06T03:11:59;98909.81;;;20.67;100.00
75972;BME280;64651;47.540;19.088;2023-08-06T03:17:01;98920.59;;;20.68;100.00
75972;BME280;64651;47.540;19.088;2023-08-06T03:22:04;98922.34;;;20.80;100.00
75972;BME280;64651;47.540;19.088;2023-08-06T03:27:06;98911.09;;;20.76;100.00
75972;BME280;64651;47.540;19.088;2023-08-06T03:32:08;98903.94;;;20.79;100.00
75972;BME280;64651;47.540;19.088;2023-08-06T03:37:10;98910.00;;;20.88;100.00
75972;BME280;64651;47.540;19.088;2023-08-06T03:42:16;98905.22;;;20.85;100.00
75972;BME280;64651;47.540;19.088;2023-08-06T03:47:18;98899.72;;;20.95;100.00
75972;BME280;64651;47.540;19.088;2023-08-06T03:52:20;98904.78;;;20.83;100.00
75972;BME280;64651;47.540;19.088;2023-08-06T03:57:22;98904.22;;;20.33;100.00
75972;BME280;64651;47.540;19.088;2023-08-06T04:02:24;98900.34;;;20.41;100.00
75972;BME280;64651;47.540;19.088;2023-08-06T04:07:27;98898.41;;;20.15;100.00
75972;BME280;64651;47.540;19.088;2023-08-06T04:12:29;98897.81;;;19.99;100.00
75972;BME280;64651;47.540;19.088;2023-08-06T04:17:31;98893.75;;;19.93;100.00
75972;BME280;64651;47.540;19.088;2023-08-06T04:22:34;98899.38;;;19.44;99.48
75972;BME280;64651;47.540;19.088;2023-08-06T04:27:36;98893.94;;;19.28;99.75
75972;BME280;64651;47.540;19.088;2023-08-06T04:32:43;98885.97;;;19.27;98.23
75972;BME280;64651;47.540;19.088;2023-08-06T04:37:45;98889.59;;;19.31;98.06
75972;BME280;64651;47.540;19.088;2023-08-06T04:42:47;98895.78;;;19.43;97.54
75972;BME280;64651;47.540;19.088;2023-08-06T04:47:49;98899.59;;;19.32;96.66
75972;BME280;64651;47.540;19.088;2023-08-06T04:52:52;98891.25;;;18.86;95.95
75972;BME280;64651;47.540;19.088;2023-08-06T04:57:54;98889.69;;;19.12;95.95
75972;BME280;64651;47.540;19.088;2023-08-06T05:02:56;98885.56;;;19.02;94.07
75972;BME280;64651;47.540;19.088;2023-08-06T05:07:58;98885.91;;;19.00;92.91
75972;BME280;64651;47.540;19.088;2023-08-06T05:13:01;98879.59;;;19.03;92.50
75972;BME280;64651;47.540;19.088;2023-08-06T05:18:03;98862.56;;;19.09;91.84
75972;BME280;64651;47.540;19.088;2023-08-06T05:23:06;98871.25;;;19.30;90.91
75972;BME280;64651;47.540;19.088;2023-08-06T05:28:08;98871.69;;;19.32;91.02
75972;BME280;64651;47.540;19.088;2023-08-06T05:33:10;98872.22;;;19.41;89.44
75972;BME280;64651;47.540;19.088;2023-08-06T05:38:12;98869.56;;;19.48;90.32
75972;BME280;64651;47.540;19.088;2023-08-06T05:43:15;98882.84;;;19.32;89.58
75972;BME280;64651;47.540;19.088;2023-08-06T05:48:17;98874.53;;;19.35;89.72
75972;BME280;64651;47.540;19.088;2023-08-06T05:53:19;98865.03;;;19.14;87.49
75972;BME280;64651;47.540;19.088;2023-08-06T05:58:21;98859.00;;;19.12;87.32
75972;BME280;64651;47.540;19.088;2023-08-06T06:03:26;98861.06;;;19.15;87.05
75972;BME280;64651;47.540;19.088;2023-08-06T06:08:28;98850.59;;;19.34;86.63
75972;BME280;64651;47.540;19.088;2023-08-06T06:13:30;98845.94;;;19.42;85.95
75972;BME280;64651;47.540;19.088;2023-08-06T06:18:33;98855.00;;;19.35;86.20
75972;BME280;64651;47.540;19.088;2023-08-06T06:23:35;98858.91;;;19.83;86.56
75972;BME280;64651;47.540;19.088;2023-08-06T06:28:37;98847.81;;;19.91;83.23
75972;BME280;64651;47.540;19.088;2023-08-06T06:33:43;98860.03;;;19.79;82.82
75972;BME280;64651;47.540;19.088;2023-08-06T06:38:45;98873.37;;;19.93;82.27
75972;BME280;64651;47.540;19.088;2023-08-06T06:43:48;98876.97;;;19.93;82.35
75972;BME280;64651;47.540;19.088;2023-08-06T06:48:50;98886.75;;;19.27;82.65
75972;BME280;64651;47.540;19.088;2023-08-06T06:53:52;98890.28;;;19.47;83.04
75972;BME280;64651;47.540;19.088;2023-08-06T06:58:57;98894.56;;;19.67;82.89
75972;BME280;64651;47.540;19.088;2023-08-06T07:03:59;98871.25;;;19.82;82.77
75972;BME280;64651;47.540;19.088;2023-08-06T07:09:06;98877.81;;;19.67;82.43
75972;BME280;64651;47.540;19.088;2023-08-06T07:14:08;98877.81;;;19.97;81.82
75972;BME280;64651;47.540;19.088;2023-08-06T07:19:11;98869.09;;;19.69;82.34
75972;BME280;64651;47.540;19.088;2023-08-06T07:24:13;98894.66;;;19.74;81.95
75972;BME280;64651;47.540;19.088;2023-08-06T07:29:15;98907.50;;;19.30;81.83
75972;BME280;64651;47.540;19.088;2023-08-06T07:34:21;98909.84;;;19.28;81.87
75972;BME280;64651;47.540;19.088;2023-08-06T07:39:24;98917.66;;;19.41;81.59
75972;BME280;64651;47.540;19.088;2023-08-06T07:44:26;98919.47;;;19.53;80.59
75972;BME280;64651;47.540;19.088;2023-08-06T07:49:28;98917.84;;;19.52;80.70
75972;BME280;64651;47.540;19.088;2023-08-06T07:54:30;98912.03;;;19.38;81.34
75972;BME280;64651;47.540;19.088;2023-08-06T07:59:33;98903.72;;;19.41;82.30
75972;BME280;64651;47.540;19.088;2023-08-06T08:04:35;98892.03;;;18.87;83.31
75972;BME280;64651;47.540;19.088;2023-08-06T08:09:37;98891.78;;;18.73;83.44
75972;BME280;64651;47.540;19.088;2023-08-06T08:14:39;98882.56;;;19.14;82.59
75972;BME280;64651;47.540;19.088;2023-08-06T08:19:42;98883.63;;;19.81;80.16
75972;BME280;64651;47.540;19.088;2023-08-06T08:24:44;98894.69;;;20.04;78.34
75972;BME280;64651;47.540;19.088;2023-08-06T08:29:46;98900.16;;;19.67;78.24
75972;BME280;64651;47.540;19.088;2023-08-06T08:34:49;98922.78;;;20.18;76.73
75972;BME280;64651;47.540;19.088;2023-08-06T08:39:51;98926.47;;;19.96;76.04
75972;BME280;64651;47.540;19.088;2023-08-06T08:44:54;98919.97;;;19.89;75.81
75972;BME280;64651;47.540;19.088;2023-08-06T08:49:57;98917.00;;;20.04;75.27
75972;BME280;64651;47.540;19.088;2023-08-06T08:55:01;98923.38;;;19.75;75.80
75972;BME280;64651;47.540;19.088;2023-08-06T09:00:04;98930.66;;;20.39;75.53
75972;BME280;64651;47.540;19.088;2023-08-06T09:05:07;98911.66;;;20.55;75.65
75972;BME280;64651;47.540;19.088;2023-08-06T09:10:12;98904.84;;;20.90;73.30
75972;BME280;64651;47.540;19.088;2023-08-06T09:15:15;98913.25;;;20.90;71.41
75972;BME280;64651;47.540;19.088;2023-08-06T09:20:18;98905.44;;;20.69;71.99
75972;BME280;64651;47.540;19.088;2023-08-06T09:25:22;98891.47;;;21.10;71.26
75972;BME280;64651;47.540;19.088;2023-08-06T09:30:31;98900.47;;;20.92;72.51
75972;BME280;64651;47.540;19.088;2023-08-06T09:35:33;98922.06;;;20.25;72.25
75972;BME280;64651;47.540;19.088;2023-08-06T09:40:36;98923.97;;;19.88;74.50
75972;BME280;64651;47.540;19.088;2023-08-06T09:45:39;98944.03;;;19.97;75.28
75972;BME280;64651;47.540;19.088;2023-08-06T09:50:41;98948.03;;;19.69;75.82
75972;BME280;64651;47.540;19.088;2023-08-06T09:55:44;98950.16;;;19.08;76.66
75972;BME280;64651;47.540;19.088;2023-08-06T10:00:47;98962.84;;;19.73;75.61
75972;BME280;64651;47.540;19.088;2023-08-06T10:05:50;98966.03;;;19.49;74.91
75972;BME280;64651;47.540;19.088;2023-08-06T10:11:01;98975.13;;;19.69;74.91
75972;BME280;64651;47.540;19.088;2023-08-06T10:16:06;98973.72;;;19.33;74.56
75972;BME280;64651;47.540;19.088;2023-08-06T10:21:09;98977.94;;;19.46;74.67
75972;BME280;64651;47.540;19.088;2023-08-06T10:26:11;98994.22;;;19.44;75.59
75972;BME280;64651;47.540;19.088;2023-08-06T10:31:14;98993.69;;;19.84;74.04
75972;BME280;64651;47.540;19.088;2023-08-06T10:36:16;98992.44;;;19.55;74.37
75972;BME280;64651;47.540;19.088;2023-08-06T10:41:29;98993.84;;;19.68;74.40
75972;BME280;64651;47.540;19.088;2023-08-06T10:46:31;98988.34;;;19.49;75.00
75972;BME280;64651;47.540;19.088;2023-08-06T10:51:34;98989.97;;;19.76;73.07
75972;BME280;64651;47.540;19.088;2023-08-06T10:56:40;98995.69;;;19.83;72.43
75972;BME280;64651;47.540;19.088;2023-08-06T11:01:43;99006.91;;;19.87;72.68
75972;BME280;64651;47.540;19.088;2023-08-06T11:06:52;99008.84;;;20.09;71.82
75972;BME280;64651;47.540;19.088;2023-08-06T11:11:55;99009.63;;;20.10;70.36
75972;BME280;64651;47.540;19.088;2023-08-06T11:16:57;99007.31;;;19.89;69.80
75972;BME280;64651;47.540;19.088;2023-08-06T11:22:00;99014.03;;;20.11;69.83
75972;BME280;64651;47.540;19.088;2023-08-06T11:27:11;99014.22;;;20.25;69.46
75972;BME280;64651;47.540;19.088;2023-08-06T11:32:13;99010.97;;;20.19;69.67
75972;BME280;64651;47.540;19.088;2023-08-06T11:37:23;99011.72;;;20.16;70.03
75972;BME280;64651;47.540;19.088;2023-08-06T11:42:30;99005.78;;;19.92;70.47
75972;BME280;64651;47.540;19.088;2023-08-06T11:47:33;99010.81;;;20.35;69.29
75972;BME280;64651;47.540;19.088;2023-08-06T11:52:39;99008.47;;;20.71;67.50
75972;BME280;64651;47.540;19.088;2023-08-06T11:57:44;99030.03;;;20.40;67.84
75972;BME280;64651;47.540;19.088;2023-08-06T12:02:46;99024.22;;;20.52;68.47
75972;BME280;64651;47.540;19.088;2023-08-06T12:07:52;99020.81;;;20.36;68.22
75972;BME280;64651;47.540;19.088;2023-08-06T12:12:55;99026.88;;;20.72;66.77
75972;BME280;64651;47.540;19.088;2023-08-06T12:17:57;99033.25;;;20.16;68.75
75972;BME280;64651;47.540;19.088;2023-08-06T12:22:59;99043.53;;;20.08;68.81
75972;BME280;64651;47.540;19.088;2023-08-06T12:28:02;99048.69;;;20.62;68.20
75972;BME280;64651;47.540;19.088;2023-08-06T12:33:04;99055.00;;;20.03;69.72
75972;BME280;64651;47.540;19.088;2023-08-06T12:38:06;99057.34;;;20.24;69.83
75972;BME280;64651;47.540;19.088;2023-08-06T12:43:08;99046.47;;;19.93;69.43
75972;BME280;64651;47.540;19.088;2023-08-06T12:48:11;99066.09;;;20.49;68.20
75972;BME280;64651;47.540;19.088;2023-08-06T12:53:13;99057.72;;;20.49;68.21
75972;BME280;64651;47.540;19.088;2023-08-06T12:58:15;99063.13;;;20.38;69.09
75972;BME280;64651;47.540;19.088;2023-08-06T13:03:17;99077.75;;;20.54;68.22
75972;BME280;64651;47.540;19.088;2023-08-06T13:08:20;99051.56;;;20.13;70.86
75972;BME280;64651;47.540;19.088;2023-08-06T13:13:22;99048.78;;;19.87;71.67
75972;BME280;64651;47.540;19.088;2023-08-06T13:18:24;99061.28;;;19.97;70.60
75972;BME280;64651;47.540;19.088;2023-08-06T13:23:26;99062.59;;;20.03;69.32
75972;BME280;64651;47.540;19.088;2023-08-06T13:28:28;99057.84;;;20.07;69.65
75972;BME280;64651;47.540;19.088;2023-08-06T13:33:31;99058.84;;;20.44;68.18
75972;BME280;64651;47.540;19.088;2023-08-06T13:38:33;99073.63;;;21.08;65.99
75972;BME280;64651;47.540;19.088;2023-08-06T13:43:35;99089.88;;;20.65;66.76
75972;BME280;64651;47.540;19.088;2023-08-06T13:48:37;99089.66;;;20.78;66.92
75972;BME280;64651;47.540;19.088;2023-08-06T13:53:40;99091.16;;;20.72;68.28
75972;BME280;64651;47.540;19.088;2023-08-06T13:58:43;99105.62;;;20.51;69.02
75972;BME280;64651;47.540;19.088;2023-08-06T14:03:45;99097.06;;;20.14;71.97
75972;BME280;64651;47.540;19.088;2023-08-06T14:08:47;99113.84;;;20.67;70.70
75972;BME280;64651;47.540;19.088;2023-08-06T14:13:50;99105.69;;;20.54;70.51
75972;BME280;64651;47.540;19.088;2023-08-06T14:18:52;99102.47;;;20.52;69.26
75972;BME280;64651;47.540;19.088;2023-08-06T14:23:54;99110.50;;;20.31;69.36
75972;BME280;64651;47.540;19.088;2023-08-06T14:28:56;99124.41;;;20.27;68.98
75972;BME280;64651;47.540;19.088;2023-08-06T14:33:58;99141.47;;;21.01;67.10
75972;BME280;64651;47.540;19.088;2023-08-06T14:39:01;99145.78;;;20.39;67.44
75972;BME280;64651;47.540;19.088;2023-08-06T14:44:03;99121.41;;;20.36;67.33
75972;BME280;64651;47.540;19.088;2023-08-06T14:49:05;99132.72;;;20.47;67.65
75972;BME280;64651;47.540;19.088;2023-08-06T14:54:07;99144.94;;;20.35;68.11
75972;BME280;64651;47.540;19.088;2023-08-06T14:59:10;99152.88;;;20.33;68.61
75972;BME280;64651;47.540;19.088;2023-08-06T15:04:12;99154.53;;;20.15;68.87
75972;BME280;64651;47.540;19.088;2023-08-06T15:09:14;99156.81;;;20.55;67.81
75972;BME280;64651;47.540;19.088;2023-08-06T15:14:16;99153.84;;;21.30;65.26
75972;BME280;64651;47.540;19.088;2023-08-06T15:19:18;99159.91;;;21.73;63.66
75972;BME280;64651;47.540;19.088;2023-08-06T15:24:21;99169.56;;;20.82;65.78
75972;BME280;64651;47.540;19.088;2023-08-06T15:29:23;99172.09;;;20.15;68.33
75972;BME280;64651;47.540;19.088;2023-08-06T15:34:25;99211.56;;;20.14;68.74
75972;BME280;64651;47.540;19.088;2023-08-06T15:39:28;99174.16;;;20.18;68.60
75972;BME280;64651;47.540;19.088;2023-08-06T15:44:30;99174.38;;;20.55;67.18
75972;BME280;64651;47.540;19.088;2023-08-06T15:49:32;99178.69;;;21.05;65.75
75972;BME280;64651;47.540;19.088;2023-08-06T15:54:34;99177.34;;;20.66;65.91
75972;BME280;64651;47.540;19.088;2023-08-06T15:59:37;99195.97;;;20.58;66.26
75972;BME280;64651;47.540;19.088;2023-08-06T16:04:39;99196.13;;;20.20;67.25
75972;BME280;64651;47.540;19.088;2023-08-06T16:09:42;99212.97;;;21.59;62.62
75972;BME280;64651;47.540;19.088;2023-08-06T16:14:46;99228.94;;;21.92;60.58
75972;BME280;64651;47.540;19.088;2023-08-06T16:19:49;99249.94;;;22.08;60.48
75972;BME280;64651;47.540;19.088;2023-08-06T16:24:52;99230.53;;;22.26;60.03
75972;BME280;64651;47.540;19.088;2023-08-06T16:29:54;99245.31;;;22.71;58.62
75972;BME280;64651;47.540;19.088;2023-08-06T16:34:56;99246.97;;;21.61;61.51
75972;BME280;64651;47.540;19.088;2023-08-06T16:39:58;99255.25;;;22.61;58.77
75972;BME280;64651;47.540;19.088;2023-08-06T16:45:01;99266.56;;;22.27;58.76
75972;BME280;64651;47.540;19.088;2023-08-06T16:50:04;99272.88;;;21.24;61.84
75972;BME280;64651;47.540;19.088;2023-08-06T16:55:12;99281.09;;;20.87;63.52
75972;BME280;64651;47.540;19.088;2023-08-06T17:00:16;99292.37;;;20.45;64.92
75972;BME280;64651;47.540;19.088;2023-08-06T17:05:18;99309.41;;;20.17;66.24
75972;BME280;64651;47.540;19.088;2023-08-06T17:10:21;99309.06;;;20.00;67.52
75972;BME280;64651;47.540;19.088;2023-08-06T17:15:24;99301.50;;;19.81;68.19
75972;BME280;64651;47.540;19.088;2023-08-06T17:20:27;99302.50;;;20.11;67.46
75972;BME280;64651;47.540;19.088;2023-08-06T17:25:29;99312.66;;;19.62;68.80
75972;BME280;64651;47.540;19.088;2023-08-06T17:30:35;99313.91;;;19.64;69.16
75972;BME280;64651;47.540;19.088;2023-08-06T17:35:46;99321.03;;;19.27;70.54
75972;BME280;64651;47.540;19.088;2023-08-06T17:40:54;99332.44;;;19.02;71.76
75972;BME280;64651;47.540;19.088;2023-08-06T17:45:58;99336.72;;;19.00;72.18
75972;BME280;64651;47.540;19.088;2023-08-06T17:51:00;99321.38;;;18.75;72.99
75972;BME280;64651;47.540;19.088;2023-08-06T17:56:02;99328.59;;;18.60;73.98
75972;BME280;64651;47.540;19.088;2023-08-06T18:01:05;99333.47;;;18.35;75.41
75972;BME280;64651;47.540;19.088;2023-08-06T18:06:07;99342.72;;;18.23;75.62
75972;BME280;64651;47.540;19.088;2023-08-06T18:11:09;99343.66;;;18.15;75.34
75972;BME280;64651;47.540;19.088;2023-08-06T18:16:12;99342.25;;;17.94;76.49
75972;BME280;64651;47.540;19.088;2023-08-06T18:21:14;99349.59;;;17.86;76.87
75972;BME280;64651;47.540;19.088;2023-08-06T18:26:16;99352.00;;;17.88;76.45
75972;BME280;64651;47.540;19.088;2023-08-06T18:31:19;99353.34;;;17.78;76.35
75972;BME280;64651;47.540;19.088;2023-08-06T18:36:21;99347.91;;;17.69;76.30
75972;BME280;64651;47.540;19.088;2023-08-06T18:41:23;99360.81;;;17.62;76.45
75972;BME280;64651;47.540;19.088;2023-08-06T18:46:27;99358.94;;;17.54;76.73
75972;BME280;64651;47.540;19.088;2023-08-06T18:51:29;99371.81;;;17.46;76.80
75972;BME280;64651;47.540;19.088;2023-08-06T18:56:32;99381.88;;;17.38;77.03
75972;BME280;64651;47.540;19.088;2023-08-06T19:01:34;99374.94;;;17.44;76.27
75972;BME280;64651;47.540;19.088;2023-08-06T19:06:36;99389.34;;;17.22;77.09
75972;BME280;64651;47.540;19.088;2023-08-06T19:11:39;99398.37;;;17.19;77.36
75972;BME280;64651;47.540;19.088;2023-08-06T19:16:41;99395.59;;;17.19;76.96
75972;BME280;64651;47.540;19.088;2023-08-06T19:21:47;99405.91;;;17.19;77.06
75972;BME280;64651;47.540;19.088;2023-08-06T19:26:50;99406.81;;;17.23;76.89
75972;BME280;64651;47.540;19.088;2023-08-06T19:31:53;99422.69;;;17.22;76.78
75972;BME280;64651;47.540;19.088;2023-08-06T19:36:58;99423.97;;;17.13;77.45
75972;BME280;64651;47.540;19.088;2023-08-06T19:42:02;99428.25;;;17.22;77.18
75972;BME280;64651;47.540;19.088;2023-08-06T19:47:04;99435.34;;;17.32;77.16
75972;BME280;64651;47.540;19.088;2023-08-06T19:52:07;99434.84;;;17.54;76.20
75972;BME280;64651;47.540;19.088;2023-08-06T19:57:09;99431.72;;;17.68;75.75
75972;BME280;64651;47.540;19.088;2023-08-06T20:02:11;99435.44;;;17.72;75.00
75972;BME280;64651;47.540;19.088;2023-08-06T20:07:14;99452.37;;;17.67;75.49
75972;BME280;64651;47.540;19.088;2023-08-06T20:12:16;99446.47;;;17.68;75.73
75972;BME280;64651;47.540;19.088;2023-08-06T20:17:19;99430.56;;;17.69;75.70
75972;BME280;64651;47.540;19.088;2023-08-06T20:22:21;99424.31;;;17.48;76.78
75972;BME280;64651;47.540;19.088;2023-08-06T20:27:35;99438.44;;;17.42;77.01
75972;BME280;64651;47.540;19.088;2023-08-06T20:32:43;99422.69;;;17.47;76.63
75972;BME280;64651;47.540;19.088;2023-08-06T20:37:58;99429.97;;;17.51;76.62
75972;BME280;64651;47.540;19.088;2023-08-06T20:43:19;99422.00;;;17.50;76.47
75972;BME280;64651;47.540;19.088;2023-08-06T20:48:22;99422.66;;;17.59;76.29
75972;BME280;64651;47.540;19.088;2023-08-06T20:53:24;99429.63;;;17.53;76.50
75972;BME280;64651;47.540;19.088;2023-08-06T20:58:27;99432.66;;;17.72;75.57
75972;BME280;64651;47.540;19.088;2023-08-06T21:03:29;99432.38;;;17.89;74.96
75972;BME280;64651;47.540;19.088;2023-08-06T21:08:33;99436.44;;;17.92;74.83
75972;BME280;64651;47.540;19.088;2023-08-06T21:13:36;99437.00;;;17.97;74.45
75972;BME280;64651;47.540;19.088;2023-08-06T21:18:39;99449.03;;;18.01;73.87
75972;BME280;64651;47.540;19.088;2023-08-06T21:23:41;99449.50;;;18.03;73.61
75972;BME280;64651;47.540;19.088;2023-08-06T21:28:46;99452.00;;;18.20;71.57
75972;BME280;64651;47.540;19.088;2023-08-06T21:33:48;99456.44;;;18.09;71.73
75972;BME280;64651;47.540;19.088;2023-08-06T21:38:51;99470.22;;;18.18;71.09
75972;BME280;64651;47.540;19.088;2023-08-06T21:43:53;99478.34;;;18.23;71.04
75972;BME280;64651;47.540;19.088;2023-08-06T21:48:55;99479.78;;;18.05;71.25
75972;BME280;64651;47.540;19.088;2023-08-06T21:53:59;99479.97;;;18.12;70.51
75972;BME280;64651;47.540;19.088;2023-08-06T21:59:01;99462.63;;;18.03;70.18
75972;BME280;64651;47.540;19.088;2023-08-06T22:04:04;99467.06;;;17.92;69.97
75972;BME280;64651;47.540;19.088;2023-08-06T22:09:06;99479.91;;;17.96;69.09
75972;BME280;64651;47.540;19.088;2023-08-06T22:14:09;99484.34;;;17.85;68.63
75972;BME280;64651;47.540;19.088;2023-08-06T22:19:11;99491.06;;;17.84;67.91
75972;BME280;64651;47.540;19.088;2023-08-06T22:24:13;99474.38;;;17.72;66.95
75972;BME280;64651;47.540;19.088;2023-08-06T22:29:15;99469.94;;;17.83;66.46
75972;BME280;64651;47.540;19.088;2023-08-06T22:34:18;99485.28;;;17.65;65.59
75972;BME280;64651;47.540;19.088;2023-08-06T22:39:23;99486.31;;;17.48;65.75
75972;BME280;64651;47.540;19.088;2023-08-06T22:44:25;99499.28;;;17.44;65.87
75972;BME280;64651;47.540;19.088;2023-08-06T22:49:28;99494.41;;;17.41;65.45
75972;BME280;64651;47.540;19.088;2023-08-06T22:54:31;99509.59;;;17.43;65.17
75972;BME280;64651;47.540;19.088;2023-08-06T22:59:33;99532.06;;;17.38;65.36
75972;BME280;64651;47.540;19.088;2023-08-06T23:04:35;99515.16;;;17.43;64.67
75972;BME280;64651;47.540;19.088;2023-08-06T23:09:37;99546.88;;;17.30;65.06
75972;BME280;64651;47.540;19.088;2023-08-06T23:14:39;99532.66;;;17.32;64.80
75972;BME280;64651;47.540;19.088;2023-08-06T23:19:42;99539.13;;;17.36;64.44
75972;BME280;64651;47.540;19.088;2023-08-06T23:24:44;99552.66;;;17.13;64.85
75972;BME280;64651;47.540;19.088;2023-08-06T23:29:46;99542.34;;;17.14;65.37
75972;BME280;64651;47.540;19.088;2023-08-06T23:34:49;99550.22;;;17.12;65.40
75972;BME280;64651;47.540;19.088;2023-08-06T23:39:55;99558.25;;;16.92;66.04
75972;BME280;64651;47.540;19.088;2023-08-06T23:44:58;99566.25;;;16.94;66.16
75972;BME280;64651;47.540;19.088;2023-08-06T23:50:00;99577.97;;;16.99;66.00
75972;BME280;64651;47.540;19.088;2023-08-06T23:55:03;99584.56;;;16.95;66.18
